createdAt,value
2022-09-25T00:01:04.314Z,10.90
2022-09-25T00:03:31.541Z,11.00
2022-09-25T00:06:06.597Z,11.00
2022-09-25T00:08:34.295Z,10.90
2022-09-25T00:11:07.372Z,10.90
2022-09-25T00:13:34.228Z,10.90
2022-09-25T00:16:02.967Z,10.90
2022-09-25T00:18:48.477Z,10.90
2022-09-25T00:21:17.653Z,10.90
2022-09-25T00:23:45.521Z,10.90
2022-09-25T00:26:14.556Z,10.90
2022-09-25T00:28:42.566Z,10.90
2022-09-25T00:31:10.544Z,10.90
2022-09-25T00:33:37.464Z,10.90
2022-09-25T00:36:07.092Z,10.90
2022-09-25T00:38:35.481Z,10.90
2022-09-25T00:41:03.661Z,11.00
2022-09-25T00:43:44.904Z,11.00
2022-09-25T00:46:20.653Z,11.00
2022-09-25T00:49:05.898Z,10.90
2022-09-25T00:51:56.871Z,10.90
2022-09-25T00:54:33.050Z,10.90
2022-09-25T00:57:06.481Z,10.90
2022-09-25T00:59:41.204Z,10.90
2022-09-25T01:02:14.093Z,11.00
2022-09-25T01:04:46.048Z,10.90
2022-09-25T01:07:14.853Z,10.90
2022-09-25T01:09:41.937Z,10.90
2022-09-25T01:12:09.444Z,10.90
2022-09-25T01:14:37.284Z,10.90
2022-09-25T01:17:10.642Z,10.90
2022-09-25T01:20:06.638Z,10.90
2022-09-25T01:22:45.646Z,10.90
2022-09-25T01:25:17.892Z,10.80
2022-09-25T01:27:50.744Z,10.90
2022-09-25T01:30:19.941Z,10.80
2022-09-25T01:33:13.265Z,10.80
2022-09-25T01:35:52.893Z,10.80
2022-09-25T01:38:24.121Z,10.80
2022-09-25T01:41:02.156Z,10.80
2022-09-25T01:43:36.634Z,10.70
2022-09-25T01:46:13.351Z,10.70
2022-09-25T01:48:42.540Z,10.70
2022-09-25T01:51:16.894Z,10.70
2022-09-25T01:53:52.279Z,10.70
2022-09-25T01:56:32.584Z,10.70
2022-09-25T01:59:29.981Z,10.70
2022-09-25T02:02:01.173Z,10.80
2022-09-25T02:04:38.386Z,10.80
2022-09-25T02:07:10.063Z,10.80
2022-09-25T02:09:42.687Z,10.80
2022-09-25T02:12:20.229Z,10.80
2022-09-25T02:14:53.904Z,10.80
2022-09-25T02:17:53.091Z,10.80
2022-09-25T02:20:32.561Z,10.80
2022-09-25T02:23:08.958Z,10.80
2022-09-25T02:25:43.988Z,10.70
2022-09-25T02:28:10.868Z,10.80
2022-09-25T02:30:37.823Z,10.80
2022-09-25T02:33:04.571Z,10.90
2022-09-25T02:35:32.764Z,10.80
2022-09-25T02:38:00.130Z,10.90
2022-09-25T02:40:41.785Z,10.80
2022-09-25T02:43:25.462Z,10.80
2022-09-25T02:46:03.695Z,10.90
2022-09-25T02:48:49.448Z,10.90
2022-09-25T02:51:45.032Z,10.90
2022-09-25T02:54:20.978Z,10.90
2022-09-25T02:57:04.188Z,10.80
2022-09-25T02:59:41.953Z,10.80
2022-09-25T03:02:11.766Z,10.80
2022-09-25T03:04:39.931Z,10.80
2022-09-25T03:07:07.295Z,10.90
2022-09-25T03:09:36.778Z,10.80
2022-09-25T03:12:05.078Z,10.90
2022-09-25T03:14:32.906Z,10.90
2022-09-25T03:17:04.656Z,10.80
2022-09-25T03:19:31.959Z,10.80
2022-09-25T03:21:58.966Z,10.80
2022-09-25T03:24:26.299Z,10.80
2022-09-25T03:26:56.500Z,10.80
2022-09-25T03:29:23.515Z,10.80
2022-09-25T03:31:50.242Z,10.80
2022-09-25T03:34:18.974Z,10.90
2022-09-25T03:36:47.438Z,10.90
2022-09-25T03:39:17.642Z,10.90
2022-09-25T03:41:44.529Z,11.00
2022-09-25T03:44:11.437Z,11.00
2022-09-25T03:46:38.316Z,11.00
2022-09-25T03:49:05.538Z,11.00
2022-09-25T03:51:33.501Z,11.00
2022-09-25T03:54:00.452Z,11.00
2022-09-25T03:56:29.681Z,11.00
2022-09-25T03:58:57.221Z,11.00
2022-09-25T04:01:25.815Z,11.00
2022-09-25T04:03:52.653Z,11.00
2022-09-25T04:06:24.326Z,11.10
2022-09-25T04:08:52.997Z,10.90
2022-09-25T04:11:21.572Z,11.00
2022-09-25T04:13:48.496Z,10.90
2022-09-25T04:16:16.706Z,10.90
2022-09-25T04:18:44.212Z,10.90
2022-09-25T04:21:12.903Z,10.90
2022-09-25T04:23:39.818Z,10.80
2022-09-25T04:26:07.762Z,10.80
2022-09-25T04:28:35.558Z,10.80
2022-09-25T04:31:03.655Z,10.80
2022-09-25T04:33:48.628Z,10.80
2022-09-25T04:36:16.946Z,10.80
2022-09-25T04:38:44.166Z,10.80
2022-09-25T04:41:11.182Z,10.80
2022-09-25T04:43:38.430Z,10.80
2022-09-25T04:46:07.533Z,10.80
2022-09-25T04:48:35.660Z,10.90
2022-09-25T04:51:03.441Z,10.90
2022-09-25T04:53:31.492Z,10.90
2022-09-25T04:56:02.589Z,11.00
2022-09-25T04:58:29.670Z,10.90
2022-09-25T05:01:00.731Z,10.90
2022-09-25T05:03:27.679Z,10.90
2022-09-25T05:05:54.548Z,10.90
2022-09-25T05:08:23.096Z,11.00
2022-09-25T05:10:49.780Z,11.00
2022-09-25T05:13:16.518Z,11.00
2022-09-25T05:15:43.364Z,11.00
2022-09-25T05:18:17.212Z,11.00
2022-09-25T05:20:44.050Z,11.00
2022-09-25T05:23:10.984Z,10.90
2022-09-25T05:25:37.719Z,11.00
2022-09-25T05:28:04.835Z,11.00
2022-09-25T05:30:38.607Z,11.00
2022-09-25T05:33:05.703Z,11.00
2022-09-25T05:35:33.070Z,11.00
2022-09-25T05:37:59.939Z,11.00
2022-09-25T05:40:27.453Z,11.00
2022-09-25T05:42:55.276Z,11.00
2022-09-25T05:45:23.802Z,11.00
2022-09-25T05:48:03.458Z,11.10
2022-09-25T05:50:34.091Z,11.00
2022-09-25T05:53:03.859Z,11.00
2022-09-25T05:55:30.857Z,11.10
2022-09-25T05:58:04.912Z,11.10
2022-09-25T06:00:33.295Z,11.10
2022-09-25T06:03:01.175Z,11.10
2022-09-25T06:05:28.003Z,11.10
2022-09-25T06:07:55.815Z,11.10
2022-09-25T06:10:23.282Z,11.00
2022-09-25T06:12:50.016Z,11.00
2022-09-25T06:15:16.782Z,11.00
2022-09-25T06:17:43.541Z,11.00
2022-09-25T06:20:15.814Z,11.00
2022-09-25T06:22:44.368Z,11.10
2022-09-25T06:25:11.129Z,11.00
2022-09-25T06:27:37.849Z,11.00
2022-09-25T06:30:05.775Z,11.00
2022-09-25T06:32:32.720Z,11.10
2022-09-25T06:34:59.453Z,11.10
2022-09-25T06:37:26.202Z,11.00
2022-09-25T06:39:52.922Z,11.10
2022-09-25T06:42:19.624Z,11.10
2022-09-25T06:44:46.374Z,11.10
2022-09-25T06:47:18.270Z,11.20
2022-09-25T06:49:46.242Z,11.20
2022-09-25T06:52:13.203Z,11.30
2022-09-25T06:54:44.051Z,11.30
2022-09-25T06:57:12.515Z,11.30
2022-09-25T06:59:39.767Z,11.20
2022-09-25T07:02:25.431Z,11.20
2022-09-25T07:04:52.878Z,11.20
2022-09-25T07:07:21.098Z,11.20
2022-09-25T07:09:48.822Z,11.30
2022-09-25T07:12:18.423Z,11.50
2022-09-25T07:14:46.873Z,11.60
2022-09-25T07:17:14.699Z,11.70
2022-09-25T07:19:41.507Z,11.80
2022-09-25T07:22:08.231Z,11.90
2022-09-25T07:24:35.383Z,12.10
2022-09-25T07:27:04.494Z,12.20
2022-09-25T07:29:35.432Z,12.30
2022-09-25T07:32:02.702Z,12.40
2022-09-25T07:34:29.465Z,12.40
2022-09-25T07:36:56.150Z,12.50
2022-09-25T07:39:22.849Z,12.50
2022-09-25T07:41:49.988Z,12.60
2022-09-25T07:44:37.996Z,12.70
2022-09-25T07:47:03.771Z,12.80
2022-09-25T07:49:31.360Z,12.80
2022-09-25T07:51:58.063Z,12.80
2022-09-25T07:54:24.892Z,12.90
2022-09-25T07:56:52.471Z,12.90
2022-09-25T07:59:19.205Z,12.90
2022-09-25T08:01:51.070Z,12.90
2022-09-25T08:04:20.367Z,12.80
2022-09-25T08:06:47.074Z,12.80
2022-09-25T08:09:13.799Z,12.80
2022-09-25T08:11:40.611Z,12.90
2022-09-25T08:14:07.772Z,12.80
2022-09-25T08:16:34.575Z,12.90
2022-09-25T08:19:01.556Z,13.10
2022-09-25T08:21:28.382Z,13.20
2022-09-25T08:23:56.489Z,13.30
2022-09-25T08:26:23.454Z,13.40
2022-09-25T08:28:50.861Z,13.50
2022-09-25T08:31:18.247Z,13.40
2022-09-25T08:33:46.654Z,13.40
2022-09-25T08:36:13.484Z,13.40
2022-09-25T08:38:40.386Z,13.30
2022-09-25T08:41:10.509Z,13.20
2022-09-25T08:43:44.830Z,13.10
2022-09-25T08:46:41.620Z,12.90
2022-09-25T08:49:11.251Z,12.80
2022-09-25T08:51:48.699Z,12.90
2022-09-25T08:54:24.942Z,13.00
2022-09-25T08:57:01.470Z,13.00
2022-09-25T08:59:40.572Z,13.10
2022-09-25T09:02:26.414Z,13.30
2022-09-25T09:05:01.084Z,13.50
2022-09-25T09:07:44.267Z,13.50
2022-09-25T09:10:13.865Z,13.50
2022-09-25T09:12:45.145Z,13.60
2022-09-25T09:15:33.889Z,13.70
2022-09-25T09:18:08.917Z,13.70
2022-09-25T09:20:56.608Z,13.80
2022-09-25T09:23:55.761Z,14.20
2022-09-25T09:26:35.708Z,14.30
2022-09-25T09:29:02.569Z,14.50
2022-09-25T09:32:17.152Z,14.50
2022-09-25T09:35:06.185Z,14.70
2022-09-25T09:37:43.560Z,15.00
2022-09-25T09:40:32.279Z,15.30
2022-09-25T09:43:19.259Z,15.30
2022-09-25T09:46:01.171Z,15.40
2022-09-25T09:48:47.071Z,15.50
2022-09-25T09:51:24.035Z,15.70
2022-09-25T09:53:58.622Z,15.80
2022-09-25T09:56:30.360Z,15.60
2022-09-25T09:59:06.343Z,15.50
2022-09-25T10:01:41.279Z,15.40
2022-09-25T10:04:12.585Z,15.40
2022-09-25T10:06:45.222Z,15.30
2022-09-25T10:09:15.536Z,15.30
2022-09-25T10:11:45.568Z,15.30
2022-09-25T10:14:21.851Z,15.30
2022-09-25T10:16:51.511Z,15.30
2022-09-25T10:19:22.209Z,15.40
2022-09-25T10:21:58.611Z,15.30
2022-09-25T10:24:55.346Z,15.30
2022-09-25T10:27:41.334Z,15.40
2022-09-25T10:30:10.961Z,15.40
2022-09-25T10:32:59.732Z,15.30
2022-09-25T10:35:38.774Z,15.20
2022-09-25T10:38:17.243Z,15.20
2022-09-25T10:40:49.266Z,15.10
2022-09-25T10:43:20.591Z,14.90
2022-09-25T10:45:55.589Z,14.80
2022-09-25T10:48:52.241Z,14.80
2022-09-25T10:51:21.244Z,14.80
2022-09-25T10:53:50.485Z,14.70
2022-09-25T10:56:27.018Z,14.70
2022-09-25T10:58:57.542Z,14.80
2022-09-25T11:01:35.401Z,14.80
2022-09-25T11:04:13.619Z,14.80
2022-09-25T11:06:49.124Z,15.00
2022-09-25T11:09:25.590Z,15.00
2022-09-25T11:12:03.977Z,15.10
2022-09-25T11:14:33.805Z,15.20
2022-09-25T11:17:05.835Z,15.40
2022-09-25T11:19:35.778Z,15.40
2022-09-25T11:22:04.746Z,15.50
2022-09-25T11:24:43.537Z,15.50
2022-09-25T11:27:18.617Z,15.50
2022-09-25T11:29:58.516Z,15.50
2022-09-25T11:32:52.648Z,15.60
2022-09-25T11:35:39.700Z,15.70
2022-09-25T11:38:47.469Z,16.00
2022-09-25T11:41:35.647Z,16.10
2022-09-25T11:44:16.222Z,16.20
2022-09-25T11:47:02.088Z,16.30
2022-09-25T11:49:31.961Z,16.40
2022-09-25T11:52:07.607Z,16.50
2022-09-25T11:54:49.147Z,16.80
2022-09-25T11:57:43.606Z,16.70
2022-09-25T12:00:16.407Z,16.80
2022-09-25T12:02:45.924Z,16.60
2022-09-25T12:05:32.247Z,16.30
2022-09-25T12:08:06.994Z,16.30
2022-09-25T12:11:07.996Z,16.30
2022-09-25T12:13:49.427Z,16.20
2022-09-25T12:16:41.866Z,16.20
2022-09-25T12:19:31.081Z,16.10
2022-09-25T12:22:36.199Z,16.10
2022-09-25T12:25:29.532Z,16.00
2022-09-25T12:28:08.664Z,16.00
2022-09-25T12:30:49.730Z,16.30
2022-09-25T12:33:28.517Z,16.60
2022-09-25T12:36:03.296Z,16.80
2022-09-25T12:38:44.336Z,17.30
2022-09-25T12:42:06.128Z,18.50
2022-09-25T12:44:54.899Z,19.10
2022-09-25T12:47:41.339Z,19.70
2022-09-25T12:50:25.972Z,19.80
2022-09-25T12:53:24.899Z,18.90
2022-09-25T12:55:59.607Z,17.90
2022-09-25T12:58:47.004Z,17.50
2022-09-25T13:01:27.252Z,17.40
2022-09-25T13:04:13.138Z,17.30
2022-09-25T13:07:03.914Z,16.90
2022-09-25T13:09:36.257Z,17.00
2022-09-25T13:12:08.722Z,16.80
2022-09-25T13:14:44.371Z,16.80
2022-09-25T13:17:12.827Z,16.80
2022-09-25T13:19:39.888Z,16.80
2022-09-25T13:22:18.207Z,16.90
2022-09-25T13:25:13.989Z,17.10
2022-09-25T13:27:44.153Z,17.10
2022-09-25T13:30:28.922Z,17.10
2022-09-25T13:33:02.900Z,17.00
2022-09-25T13:35:32.906Z,17.00
2022-09-25T13:38:36.184Z,16.90
2022-09-25T13:41:13.396Z,16.80
2022-09-25T13:43:40.386Z,16.60
2022-09-25T13:46:23.654Z,16.40
2022-09-25T13:48:55.719Z,16.30
2022-09-25T13:51:23.123Z,16.30
2022-09-25T13:54:03.516Z,16.30
2022-09-25T13:56:33.346Z,16.30
2022-09-25T13:59:07.702Z,16.30
2022-09-25T14:01:37.909Z,16.40
2022-09-25T14:04:13.807Z,16.40
2022-09-25T14:06:42.276Z,16.30
2022-09-25T14:09:12.297Z,16.30
2022-09-25T14:11:43.039Z,16.30
2022-09-25T14:14:30.197Z,16.40
2022-09-25T14:16:58.605Z,16.60
2022-09-25T14:19:29.624Z,16.70
2022-09-25T14:21:58.824Z,16.80
2022-09-25T14:24:29.110Z,16.80
2022-09-25T14:27:01.211Z,16.70
2022-09-25T14:29:46.042Z,16.60
2022-09-25T14:32:54.658Z,16.50
2022-09-25T14:35:46.572Z,16.50
2022-09-25T14:38:37.219Z,16.60
2022-09-25T14:41:22.548Z,16.80
2022-09-25T14:44:25.611Z,16.60
2022-09-25T14:46:54.394Z,16.50
2022-09-25T14:49:33.683Z,16.40
2022-09-25T14:52:07.722Z,16.30
2022-09-25T14:54:38.951Z,16.30
2022-09-25T14:57:07.975Z,16.20
2022-09-25T14:59:43.435Z,16.20
2022-09-25T15:02:23.800Z,16.10
2022-09-25T15:04:51.062Z,15.90
2022-09-25T15:07:23.109Z,15.80
2022-09-25T15:09:55.130Z,15.70
2022-09-25T15:12:26.807Z,15.70
2022-09-25T15:15:13.235Z,15.70
2022-09-25T15:17:53.329Z,15.60
2022-09-25T15:20:23.037Z,15.50
2022-09-25T15:22:54.944Z,15.50
2022-09-25T15:25:29.815Z,15.60
2022-09-25T15:27:56.820Z,15.50
2022-09-25T15:30:26.675Z,15.50
2022-09-25T15:32:58.532Z,15.50
2022-09-25T15:35:29.178Z,15.50
2022-09-25T15:38:10.807Z,15.50
2022-09-25T15:40:38.300Z,15.50
2022-09-25T15:43:13.474Z,15.40
2022-09-25T15:45:55.949Z,15.40
2022-09-25T15:48:29.860Z,15.40
2022-09-25T15:50:59.550Z,15.30
2022-09-25T15:53:29.127Z,15.30
2022-09-25T15:56:23.197Z,15.30
2022-09-25T15:58:54.355Z,15.30
2022-09-25T16:01:44.175Z,15.20
2022-09-25T16:04:38.962Z,15.20
2022-09-25T16:07:26.963Z,15.10
2022-09-25T16:09:59.647Z,15.10
2022-09-25T16:12:27.349Z,15.00
2022-09-25T16:14:55.175Z,15.00
2022-09-25T16:17:40.632Z,15.00
2022-09-25T16:20:30.221Z,15.00
2022-09-25T16:22:59.984Z,14.90
2022-09-25T16:25:32.040Z,14.80
2022-09-25T16:28:08.173Z,14.80
2022-09-25T16:30:35.793Z,14.70
2022-09-25T16:33:19.775Z,14.60
2022-09-25T16:36:10.590Z,14.50
2022-09-25T16:38:41.305Z,14.40
2022-09-25T16:41:14.469Z,14.40
2022-09-25T16:43:41.422Z,14.40
2022-09-25T16:46:21.394Z,14.30
2022-09-25T16:49:00.566Z,14.30
2022-09-25T16:51:30.133Z,14.10
2022-09-25T16:54:00.191Z,14.10
2022-09-25T16:56:31.995Z,14.10
2022-09-25T16:58:59.280Z,14.00
2022-09-25T17:01:27.902Z,13.90
2022-09-25T17:03:59.607Z,13.90
2022-09-25T17:06:27.132Z,13.90
2022-09-25T17:08:54.004Z,13.80
2022-09-25T17:11:22.115Z,13.80
2022-09-25T17:13:49.874Z,13.60
2022-09-25T17:16:17.235Z,13.50
2022-09-25T17:18:44.141Z,13.40
2022-09-25T17:21:15.157Z,13.30
2022-09-25T17:23:43.699Z,13.10
2022-09-25T17:26:18.392Z,13.00
2022-09-25T17:28:45.196Z,12.80
2022-09-25T17:31:21.177Z,12.70
2022-09-25T17:33:52.597Z,12.60
2022-09-25T17:36:19.697Z,12.50
2022-09-25T17:38:46.474Z,12.50
2022-09-25T17:41:21.883Z,12.50
2022-09-25T17:43:49.300Z,12.50
2022-09-25T17:46:19.068Z,12.40
2022-09-25T17:48:51.594Z,12.30
2022-09-25T17:51:26.508Z,12.30
2022-09-25T17:53:54.317Z,12.20
2022-09-25T17:56:21.852Z,12.10
2022-09-25T17:58:49.057Z,11.90
2022-09-25T18:01:22.420Z,11.90
2022-09-25T18:04:07.407Z,11.80
2022-09-25T18:06:34.161Z,11.70
2022-09-25T18:09:01.021Z,11.60
2022-09-25T18:11:28.939Z,11.50
2022-09-25T18:14:00.980Z,11.50
2022-09-25T18:16:30.680Z,11.50
2022-09-25T18:19:15.902Z,11.40
2022-09-25T18:22:01.587Z,11.50
2022-09-25T18:24:28.989Z,11.40
2022-09-25T18:26:57.817Z,11.40
2022-09-25T18:29:25.199Z,11.40
2022-09-25T18:31:52.960Z,11.30
2022-09-25T18:34:21.703Z,11.10
2022-09-25T18:36:49.840Z,11.00
2022-09-25T18:39:20.216Z,10.90
2022-09-25T18:41:47.865Z,10.90
2022-09-25T18:44:15.071Z,10.90
2022-09-25T18:46:42.352Z,11.00
2022-09-25T18:49:09.413Z,11.10
2022-09-25T18:51:36.196Z,11.20
2022-09-25T18:54:03.864Z,11.20
2022-09-25T18:56:31.793Z,11.20
2022-09-25T18:58:59.552Z,11.20
2022-09-25T19:01:26.538Z,11.20
2022-09-25T19:03:53.412Z,11.20
2022-09-25T19:06:20.872Z,11.20
2022-09-25T19:08:52.872Z,11.30
2022-09-25T19:11:19.776Z,11.30
2022-09-25T19:13:47.572Z,11.30
2022-09-25T19:16:14.410Z,11.40
2022-09-25T19:18:41.254Z,11.40
2022-09-25T19:21:08.306Z,11.40
2022-09-25T19:23:35.509Z,11.50
2022-09-25T19:26:08.536Z,11.40
2022-09-25T19:28:36.099Z,11.40
2022-09-25T19:31:11.774Z,11.50
2022-09-25T19:33:38.852Z,11.50
2022-09-25T19:36:08.371Z,11.40
2022-09-25T19:38:38.141Z,11.40
2022-09-25T19:41:12.610Z,11.30
2022-09-25T19:43:39.797Z,11.30
2022-09-25T19:46:06.932Z,11.20
2022-09-25T19:48:34.603Z,11.20
2022-09-25T19:51:07.696Z,11.30
2022-09-25T19:53:35.347Z,11.20
2022-09-25T19:56:03.152Z,11.20
2022-09-25T19:58:31.695Z,11.20
2022-09-25T20:01:00.535Z,11.20
2022-09-25T20:03:27.986Z,11.10
2022-09-25T20:05:55.206Z,11.10
2022-09-25T20:08:22.545Z,11.10
2022-09-25T20:10:49.483Z,11.10
2022-09-25T20:13:16.287Z,11.10
2022-09-25T20:15:45.674Z,11.00
2022-09-25T20:18:12.495Z,11.00
2022-09-25T20:20:39.890Z,11.00
2022-09-25T20:23:07.792Z,11.10
2022-09-25T20:25:34.686Z,11.10
2022-09-25T20:28:01.548Z,11.20
2022-09-25T20:30:29.256Z,11.20
2022-09-25T20:32:56.057Z,11.20
2022-09-25T20:35:22.776Z,11.20
2022-09-25T20:37:49.472Z,11.20
2022-09-25T20:40:16.508Z,11.20
2022-09-25T20:42:43.653Z,11.30
2022-09-25T20:45:10.979Z,11.30
2022-09-25T20:47:45.852Z,11.30
2022-09-25T20:50:13.110Z,11.20
2022-09-25T20:52:39.928Z,11.20
2022-09-25T20:55:07.184Z,11.30
2022-09-25T20:57:34.023Z,11.30
2022-09-25T21:00:01.939Z,11.30
2022-09-25T21:02:29.865Z,11.30
2022-09-25T21:04:56.960Z,11.30
2022-09-25T21:07:25.521Z,11.30
2022-09-25T21:09:53.230Z,11.30
2022-09-25T21:12:20.306Z,11.30
2022-09-25T21:14:48.730Z,11.30
2022-09-25T21:17:15.565Z,11.30
2022-09-25T21:19:42.420Z,11.30
2022-09-25T21:22:09.151Z,11.30
2022-09-25T21:24:35.928Z,11.30
2022-09-25T21:27:02.620Z,11.20
2022-09-25T21:29:31.793Z,11.20
2022-09-25T21:31:58.571Z,11.20
2022-09-25T21:34:26.451Z,11.20
2022-09-25T21:36:53.228Z,11.10
2022-09-25T21:39:21.382Z,11.10
2022-09-25T21:41:48.663Z,11.10
2022-09-25T21:44:17.431Z,11.10
2022-09-25T21:46:44.438Z,11.10
2022-09-25T21:49:17.325Z,11.10
2022-09-25T21:51:45.704Z,11.10
2022-09-25T21:54:14.520Z,11.20
2022-09-25T21:56:44.275Z,11.20
2022-09-25T21:59:11.368Z,11.10
2022-09-25T22:01:40.063Z,11.20
2022-09-25T22:04:10.198Z,11.20
2022-09-25T22:06:39.746Z,11.10
2022-09-25T22:09:10.152Z,11.10
2022-09-25T22:11:37.966Z,11.10
2022-09-25T22:14:06.205Z,11.10
2022-09-25T22:16:39.004Z,11.10
2022-09-25T22:19:13.379Z,11.20
2022-09-25T22:21:41.319Z,11.10
2022-09-25T22:24:08.427Z,11.10
2022-09-25T22:26:37.263Z,11.20
2022-09-25T22:29:05.184Z,11.20
2022-09-25T22:31:33.735Z,11.10
2022-09-25T22:34:09.120Z,11.10
2022-09-25T22:36:36.574Z,11.20
2022-09-25T22:39:05.417Z,11.10
2022-09-25T22:41:32.911Z,11.20
2022-09-25T22:44:00.984Z,11.20
2022-09-25T22:46:28.492Z,11.20
2022-09-25T22:48:55.814Z,11.20
2022-09-25T22:51:24.814Z,11.10
2022-09-25T22:53:52.856Z,11.10
2022-09-25T22:56:21.021Z,11.10
2022-09-25T22:58:50.356Z,11.00
2022-09-25T23:01:47.109Z,11.00
2022-09-25T23:04:24.791Z,11.00
2022-09-25T23:06:52.426Z,10.90
2022-09-25T23:09:22.244Z,11.00
2022-09-25T23:11:49.323Z,10.90
2022-09-25T23:14:19.724Z,10.90
2022-09-25T23:16:48.633Z,10.90
2022-09-25T23:19:16.162Z,11.00
2022-09-25T23:21:43.204Z,11.00
2022-09-25T23:24:15.791Z,11.10
2022-09-25T23:26:42.996Z,11.00
2022-09-25T23:29:12.578Z,11.10
2022-09-25T23:31:39.488Z,11.10
2022-09-25T23:34:06.232Z,11.10
2022-09-25T23:36:32.928Z,11.10
2022-09-25T23:39:00.683Z,11.20
2022-09-25T23:41:30.183Z,11.10
2022-09-25T23:43:57.781Z,11.10
2022-09-25T23:46:26.397Z,11.20
2022-09-25T23:48:54.272Z,11.20
2022-09-25T23:51:22.899Z,11.10
2022-09-25T23:53:50.434Z,11.10
2022-09-25T23:56:19.995Z,11.20
2022-09-25T23:58:47.592Z,11.20
